createdAt,value
2019-05-25T00:00:43.320Z,12.29
2019-05-25T00:01:43.294Z,12.26
2019-05-25T00:02:43.313Z,12.25
2019-05-25T00:03:43.332Z,12.23
2019-05-25T00:04:43.264Z,12.21
2019-05-25T00:05:43.241Z,12.22
2019-05-25T00:06:43.244Z,12.21
2019-05-25T00:07:43.223Z,12.23
2019-05-25T00:08:43.255Z,12.22
2019-05-25T00:09:43.213Z,12.23
2019-05-25T00:10:43.200Z,12.22
2019-05-25T00:11:43.213Z,12.33
2019-05-25T00:12:43.197Z,12.25
2019-05-25T00:13:43.190Z,12.22
2019-05-25T00:14:43.152Z,12.25
2019-05-25T00:15:43.152Z,12.29
2019-05-25T00:16:43.129Z,12.19
2019-05-25T00:17:43.660Z,12.11
2019-05-25T00:18:43.128Z,12.15
2019-05-25T00:19:43.086Z,12.07
2019-05-25T00:20:43.090Z,12.07
2019-05-25T00:21:43.078Z,12.00
2019-05-25T00:22:43.057Z,12.07
2019-05-25T00:23:43.063Z,12.00
2019-05-25T00:24:43.037Z,11.98
2019-05-25T00:25:43.025Z,11.93
2019-05-25T00:26:43.028Z,11.96
2019-05-25T00:27:43.013Z,11.93
2019-05-25T00:28:43.065Z,11.94
2019-05-25T00:29:42.984Z,11.98
2019-05-25T00:30:42.964Z,11.96
2019-05-25T00:31:42.965Z,11.78
2019-05-25T00:32:42.950Z,11.84
2019-05-25T00:33:42.947Z,11.85
2019-05-25T00:34:42.929Z,11.82
2019-05-25T00:35:42.921Z,11.82
2019-05-25T00:36:42.900Z,11.81
2019-05-25T00:37:42.894Z,11.75
2019-05-25T00:38:42.905Z,11.74
2019-05-25T00:39:42.877Z,11.81
2019-05-25T00:40:42.876Z,11.70
2019-05-25T00:41:42.858Z,11.74
2019-05-25T00:42:42.833Z,11.69
2019-05-25T00:43:42.857Z,11.69
2019-05-25T00:44:42.820Z,11.63
2019-05-25T00:45:42.804Z,11.66
2019-05-25T00:46:42.803Z,11.57
2019-05-25T00:47:42.792Z,11.62
2019-05-25T00:48:42.793Z,11.60
2019-05-25T00:49:42.772Z,11.56
2019-05-25T00:50:42.753Z,11.57
2019-05-25T00:51:42.737Z,11.60
2019-05-25T00:52:42.742Z,11.57
2019-05-25T00:53:42.764Z,11.48
2019-05-25T00:54:42.706Z,11.64
2019-05-25T00:55:42.700Z,11.57
2019-05-25T00:56:42.695Z,11.57
2019-05-25T00:57:42.708Z,11.56
2019-05-25T00:58:42.689Z,11.53
2019-05-25T00:59:42.656Z,11.48
2019-05-25T01:00:42.644Z,11.48
2019-05-25T01:01:42.636Z,11.51
2019-05-25T01:03:51.890Z,11.51
2019-05-25T01:04:52.820Z,11.41
2019-05-25T01:05:52.809Z,11.46
2019-05-25T01:06:52.806Z,11.42
2019-05-25T01:07:52.784Z,11.42
2019-05-25T01:08:52.784Z,11.42
2019-05-25T01:09:52.783Z,11.36
2019-05-25T01:10:52.759Z,11.46
2019-05-25T01:11:52.760Z,11.31
2019-05-25T01:12:52.738Z,11.26
2019-05-25T01:13:52.800Z,11.31
2019-05-25T01:14:52.721Z,11.24
2019-05-25T01:15:52.715Z,11.23
2019-05-25T01:16:52.710Z,11.28
2019-05-25T01:17:52.679Z,11.24
2019-05-25T01:18:52.708Z,11.26
2019-05-25T01:19:52.671Z,11.17
2019-05-25T01:20:52.652Z,11.19
2019-05-25T01:21:52.669Z,11.21
2019-05-25T01:22:52.634Z,11.21
2019-05-25T01:23:52.655Z,11.24
2019-05-25T01:24:52.687Z,11.27
2019-05-25T01:25:52.581Z,11.28
2019-05-25T01:26:52.582Z,11.24
2019-05-25T01:27:52.591Z,11.23
2019-05-25T01:28:52.607Z,11.13
2019-05-25T01:29:52.553Z,11.06
2019-05-25T01:30:52.564Z,11.09
2019-05-25T01:31:52.549Z,11.13
2019-05-25T01:32:52.509Z,11.05
2019-05-25T01:33:52.527Z,11.05
2019-05-25T01:34:52.519Z,10.98
2019-05-25T01:35:52.508Z,11.02
2019-05-25T01:36:52.484Z,11.01
2019-05-25T01:37:52.486Z,10.98
2019-05-25T01:38:52.474Z,10.91
2019-05-25T01:39:52.462Z,10.90
2019-05-25T01:40:52.460Z,10.87
2019-05-25T01:41:52.416Z,10.90
2019-05-25T01:42:52.395Z,10.87
2019-05-25T01:43:52.409Z,10.84
2019-05-25T01:44:52.405Z,10.88
2019-05-25T01:45:52.408Z,10.87
2019-05-25T01:46:52.388Z,10.87
2019-05-25T01:47:52.353Z,10.86
2019-05-25T01:48:52.391Z,10.83
2019-05-25T01:49:52.345Z,10.78
2019-05-25T01:50:52.343Z,10.83
2019-05-25T01:51:52.303Z,10.72
2019-05-25T01:52:52.285Z,10.70
2019-05-25T01:53:52.283Z,10.66
2019-05-25T01:54:59.754Z,10.70
2019-05-25T01:55:52.302Z,10.65
2019-05-25T01:56:52.243Z,10.60
2019-05-25T01:57:52.237Z,10.63
2019-05-25T01:58:52.239Z,10.68
2019-05-25T01:59:52.222Z,10.69
2019-05-25T02:00:52.207Z,10.63
2019-05-25T02:01:52.215Z,10.66
2019-05-25T02:02:52.208Z,10.62
2019-05-25T02:03:52.201Z,10.62
2019-05-25T02:04:52.181Z,10.57
2019-05-25T02:05:52.158Z,10.57
2019-05-25T02:06:52.149Z,10.69
2019-05-25T02:07:52.155Z,10.62
2019-05-25T02:08:52.105Z,10.70
2019-05-25T02:09:52.155Z,10.70
2019-05-25T02:10:52.119Z,10.58
2019-05-25T02:11:52.101Z,10.55
2019-05-25T02:12:52.177Z,10.55
2019-05-25T02:13:52.054Z,10.47
2019-05-25T02:14:52.092Z,10.46
2019-05-25T02:15:52.035Z,10.42
2019-05-25T02:16:52.041Z,10.43
2019-05-25T02:17:52.028Z,10.52
2019-05-25T02:18:52.012Z,10.49
2019-05-25T02:19:52.026Z,10.42
2019-05-25T02:20:51.987Z,10.44
2019-05-25T02:21:51.972Z,10.43
2019-05-25T02:22:51.953Z,10.43
2019-05-25T02:23:51.963Z,10.36
2019-05-25T02:24:51.940Z,10.39
2019-05-25T02:25:51.960Z,10.44
2019-05-25T02:26:51.952Z,10.39
2019-05-25T02:27:51.950Z,10.29
2019-05-25T02:28:51.906Z,10.35
2019-05-25T02:29:51.912Z,10.32
2019-05-25T02:30:51.867Z,10.36
2019-05-25T02:31:51.868Z,10.25
2019-05-25T02:32:51.853Z,10.34
2019-05-25T02:33:51.829Z,10.29
2019-05-25T02:34:51.898Z,10.38
2019-05-25T02:35:51.812Z,10.35
2019-05-25T02:36:51.794Z,10.25
2019-05-25T02:37:51.794Z,10.28
2019-05-25T02:38:51.821Z,10.28
2019-05-25T02:39:51.830Z,10.28
2019-05-25T02:40:51.755Z,10.28
2019-05-25T02:41:51.745Z,10.32
2019-05-25T02:42:51.762Z,10.29
2019-05-25T02:43:51.738Z,10.32
2019-05-25T02:44:51.753Z,10.20
2019-05-25T02:45:51.721Z,10.24
2019-05-25T02:46:51.731Z,10.24
2019-05-25T02:47:51.690Z,10.26
2019-05-25T02:48:51.673Z,10.25
2019-05-25T02:49:51.709Z,10.24
2019-05-25T02:50:53.120Z,10.18
2019-05-25T02:51:51.646Z,10.24
2019-05-25T02:52:51.661Z,10.20
2019-05-25T02:53:51.648Z,10.17
2019-05-25T02:54:51.637Z,10.13
2019-05-25T02:55:51.597Z,10.14
2019-05-25T02:56:51.595Z,10.16
2019-05-25T02:57:51.578Z,10.07
2019-05-25T02:58:51.599Z,10.18
2019-05-25T02:59:51.579Z,10.11
2019-05-25T03:00:51.565Z,10.20
2019-05-25T03:01:51.531Z,10.28
2019-05-25T03:02:51.554Z,10.20
2019-05-25T03:05:00.747Z,10.18
2019-05-25T03:06:01.791Z,10.13
2019-05-25T03:07:01.709Z,10.13
2019-05-25T03:08:01.705Z,10.11
2019-05-25T03:09:01.718Z,10.20
2019-05-25T03:10:01.726Z,10.20
2019-05-25T03:11:01.671Z,10.20
2019-05-25T03:12:01.663Z,10.25
2019-05-25T03:13:01.652Z,10.25
2019-05-25T03:14:01.631Z,10.22
2019-05-25T03:15:01.678Z,10.16
2019-05-25T03:16:01.610Z,10.13
2019-05-25T03:17:01.590Z,10.11
2019-05-25T03:18:01.592Z,10.16
2019-05-25T03:19:01.579Z,10.16
2019-05-25T03:20:01.588Z,10.20
2019-05-25T03:21:01.551Z,10.17
2019-05-25T03:22:01.552Z,10.17
2019-05-25T03:23:01.551Z,10.13
2019-05-25T03:24:01.530Z,10.16
2019-05-25T03:25:01.514Z,10.04
2019-05-25T03:26:01.523Z,10.13
2019-05-25T03:27:01.508Z,10.11
2019-05-25T03:28:01.481Z,10.16
2019-05-25T03:29:01.460Z,10.25
2019-05-25T03:30:01.711Z,10.24
2019-05-25T03:31:01.463Z,10.28
2019-05-25T03:32:01.439Z,10.28
2019-05-25T03:33:01.587Z,10.25
2019-05-25T03:34:01.419Z,10.25
2019-05-25T03:35:01.501Z,10.32
2019-05-25T03:36:01.415Z,10.34
2019-05-25T03:37:01.389Z,10.36
2019-05-25T03:38:01.380Z,10.34
2019-05-25T03:39:01.369Z,10.44
2019-05-25T03:40:01.351Z,10.36
2019-05-25T03:41:01.348Z,10.35
2019-05-25T03:42:01.326Z,10.39
2019-05-25T03:43:01.344Z,10.38
2019-05-25T03:44:01.297Z,10.34
2019-05-25T03:45:01.283Z,10.38
2019-05-25T03:46:01.294Z,10.38
2019-05-25T03:47:01.287Z,10.46
2019-05-25T03:48:01.267Z,10.42
2019-05-25T03:49:01.314Z,10.52
2019-05-25T03:50:01.241Z,10.55
2019-05-25T03:51:01.264Z,10.47
2019-05-25T03:52:01.227Z,10.51
2019-05-25T03:53:01.204Z,10.52
2019-05-25T03:54:01.206Z,10.52
2019-05-25T03:55:01.176Z,10.63
2019-05-25T03:56:05.998Z,10.62
2019-05-25T03:57:01.166Z,10.62
2019-05-25T03:58:01.140Z,10.68
2019-05-25T03:59:01.140Z,10.62
2019-05-25T04:00:01.131Z,10.72
2019-05-25T04:01:01.153Z,10.73
2019-05-25T04:02:01.113Z,10.73
2019-05-25T04:03:01.103Z,10.68
2019-05-25T04:04:01.089Z,10.78
2019-05-25T04:05:01.074Z,10.86
2019-05-25T04:06:01.072Z,10.80
2019-05-25T04:07:01.056Z,10.90
2019-05-25T04:08:01.033Z,10.99
2019-05-25T04:09:01.057Z,10.99
2019-05-25T04:10:01.057Z,11.01
2019-05-25T04:11:01.018Z,11.02
2019-05-25T04:12:01.006Z,11.02
2019-05-25T04:13:00.977Z,11.02
2019-05-25T04:14:00.991Z,11.08
2019-05-25T04:15:00.992Z,11.09
2019-05-25T04:16:00.984Z,11.06
2019-05-25T04:17:00.947Z,11.06
2019-05-25T04:18:00.929Z,11.09
2019-05-25T04:19:00.912Z,11.08
2019-05-25T04:20:00.915Z,11.16
2019-05-25T04:21:00.927Z,11.16
2019-05-25T04:22:00.900Z,11.12
2019-05-25T04:23:00.873Z,11.11
2019-05-25T04:24:00.857Z,11.23
2019-05-25T04:25:00.858Z,11.21
2019-05-25T04:26:00.867Z,11.16
2019-05-25T04:27:00.837Z,11.17
2019-05-25T04:28:00.821Z,11.23
2019-05-25T04:29:00.810Z,11.17
2019-05-25T04:30:00.801Z,11.20
2019-05-25T04:31:00.815Z,11.27
2019-05-25T04:32:00.795Z,11.21
2019-05-25T04:33:00.790Z,11.31
2019-05-25T04:34:00.761Z,11.27
2019-05-25T04:35:00.923Z,11.24
2019-05-25T04:36:00.742Z,11.35
2019-05-25T04:37:00.725Z,11.35
2019-05-25T04:38:00.717Z,11.21
2019-05-25T04:39:00.715Z,11.28
2019-05-25T04:40:00.748Z,11.30
2019-05-25T04:41:00.750Z,11.41
2019-05-25T04:42:00.667Z,11.28
2019-05-25T04:43:00.670Z,11.42
2019-05-25T04:44:00.649Z,11.42
2019-05-25T04:45:00.638Z,11.38
2019-05-25T04:46:00.634Z,11.42
2019-05-25T04:47:00.619Z,11.44
2019-05-25T04:48:00.608Z,11.56
2019-05-25T04:49:00.592Z,11.45
2019-05-25T04:50:00.583Z,11.48
2019-05-25T04:51:00.566Z,11.45
2019-05-25T04:52:00.578Z,11.49
2019-05-25T04:53:00.552Z,11.48
2019-05-25T04:54:00.538Z,11.38
2019-05-25T04:55:00.524Z,11.45
2019-05-25T04:56:00.503Z,11.44
2019-05-25T04:57:00.534Z,11.36
2019-05-25T04:58:00.514Z,11.41
2019-05-25T04:59:00.478Z,11.42
2019-05-25T05:00:00.476Z,11.39
2019-05-25T05:01:00.491Z,11.36
2019-05-25T05:02:00.501Z,11.30
2019-05-25T05:03:00.451Z,11.31
2019-05-25T05:04:00.417Z,11.44
2019-05-25T05:06:09.599Z,11.44
2019-05-25T05:07:10.621Z,11.51
2019-05-25T05:08:10.588Z,11.56
2019-05-25T05:09:10.572Z,11.59
2019-05-25T05:10:10.557Z,11.66
2019-05-25T05:11:10.556Z,11.72
2019-05-25T05:12:10.558Z,11.75
2019-05-25T05:13:10.526Z,11.77
2019-05-25T05:14:10.585Z,11.81
2019-05-25T05:15:10.515Z,11.67
2019-05-25T05:16:10.486Z,11.54
2019-05-25T05:17:10.511Z,11.59
2019-05-25T05:18:10.481Z,11.81
2019-05-25T05:19:10.477Z,11.79
2019-05-25T05:20:10.447Z,11.79
2019-05-25T05:21:10.444Z,11.77
2019-05-25T05:22:10.441Z,11.56
2019-05-25T05:23:10.424Z,11.46
2019-05-25T05:24:10.420Z,11.53
2019-05-25T05:25:11.106Z,11.56
2019-05-25T05:26:10.395Z,11.44
2019-05-25T05:27:10.384Z,11.64
2019-05-25T05:28:10.365Z,11.69
2019-05-25T05:29:10.366Z,11.66
2019-05-25T05:30:10.340Z,11.78
2019-05-25T05:31:22.669Z,11.79
2019-05-25T05:32:10.352Z,11.82
2019-05-25T05:33:10.306Z,11.81
2019-05-25T05:34:10.291Z,11.78
2019-05-25T05:35:10.295Z,11.81
2019-05-25T05:36:10.275Z,11.79
2019-05-25T05:37:10.280Z,11.77
2019-05-25T05:38:10.249Z,11.67
2019-05-25T05:39:10.250Z,11.67
2019-05-25T05:40:10.237Z,11.84
2019-05-25T05:41:10.222Z,11.96
2019-05-25T05:42:10.233Z,11.98
2019-05-25T05:43:10.214Z,12.03
2019-05-25T05:44:10.193Z,11.96
2019-05-25T05:45:10.180Z,11.96
2019-05-25T05:46:10.162Z,11.88
2019-05-25T05:47:10.596Z,11.67
2019-05-25T05:48:10.145Z,11.69
2019-05-25T05:49:10.139Z,11.69
2019-05-25T05:50:10.123Z,11.69
2019-05-25T05:51:10.106Z,11.78
2019-05-25T05:52:10.130Z,11.77
2019-05-25T05:53:10.113Z,11.82
2019-05-25T05:54:10.075Z,11.70
2019-05-25T05:55:10.077Z,11.74
2019-05-25T05:56:10.055Z,11.77
2019-05-25T05:57:12.723Z,11.64
2019-05-25T05:58:10.081Z,11.63
2019-05-25T05:59:10.042Z,11.57
2019-05-25T06:00:10.020Z,11.69
2019-05-25T06:01:10.005Z,11.72
2019-05-25T06:02:10.027Z,11.70
2019-05-25T06:03:09.989Z,11.78
2019-05-25T06:04:09.971Z,11.69
2019-05-25T06:05:09.963Z,11.60
2019-05-25T06:06:09.959Z,11.63
2019-05-25T06:07:09.950Z,11.62
2019-05-25T06:08:09.947Z,11.67
2019-05-25T06:09:09.918Z,11.72
2019-05-25T06:10:09.907Z,11.78
2019-05-25T06:11:09.893Z,11.84
2019-05-25T06:12:09.894Z,11.93
2019-05-25T06:13:09.911Z,11.82
2019-05-25T06:14:09.866Z,11.85
2019-05-25T06:15:09.857Z,11.81
2019-05-25T06:16:09.846Z,11.94
2019-05-25T06:17:09.842Z,11.93
2019-05-25T06:18:09.838Z,11.94
2019-05-25T06:19:09.817Z,11.97
2019-05-25T06:20:09.805Z,12.07
2019-05-25T06:21:09.795Z,12.11
2019-05-25T06:22:09.782Z,12.01
2019-05-25T06:23:12.287Z,11.98
2019-05-25T06:24:09.752Z,11.98
2019-05-25T06:25:09.744Z,11.96
2019-05-25T06:26:09.772Z,12.07
2019-05-25T06:27:09.714Z,12.00
2019-05-25T06:28:09.734Z,12.03
2019-05-25T06:29:09.701Z,12.03
2019-05-25T06:30:09.701Z,12.12
2019-05-25T06:31:09.685Z,12.03
2019-05-25T06:32:09.666Z,11.97
2019-05-25T06:33:09.681Z,12.18
2019-05-25T06:34:09.653Z,12.12
2019-05-25T06:35:09.642Z,12.25
2019-05-25T06:36:09.619Z,12.37
2019-05-25T06:37:09.620Z,12.38
2019-05-25T06:38:09.624Z,12.37
2019-05-25T06:39:09.602Z,12.41
2019-05-25T06:40:09.580Z,12.38
2019-05-25T06:41:09.577Z,12.36
2019-05-25T06:42:09.556Z,12.34
2019-05-25T06:43:09.570Z,12.26
2019-05-25T06:44:09.545Z,12.23
2019-05-25T06:45:09.519Z,12.36
2019-05-25T06:46:09.524Z,12.41
2019-05-25T06:47:09.502Z,12.23
2019-05-25T06:48:09.518Z,12.23
2019-05-25T06:49:09.480Z,12.23
2019-05-25T06:50:09.464Z,12.38
2019-05-25T06:51:09.457Z,12.56
2019-05-25T06:52:09.453Z,12.46
2019-05-25T06:53:09.454Z,12.61
2019-05-25T06:54:09.443Z,12.58
2019-05-25T06:55:09.426Z,12.61
2019-05-25T06:56:09.403Z,12.51
2019-05-25T06:57:09.440Z,12.56
2019-05-25T06:58:09.414Z,12.58
2019-05-25T06:59:09.385Z,12.69
2019-05-25T07:00:09.357Z,12.56
2019-05-25T07:01:09.352Z,12.80
2019-05-25T07:02:09.348Z,12.81
2019-05-25T07:03:09.345Z,12.88
2019-05-25T07:04:09.327Z,12.98
2019-05-25T07:05:09.319Z,12.91
2019-05-25T07:07:18.483Z,12.89
2019-05-25T07:08:19.495Z,12.99
2019-05-25T07:09:19.474Z,13.14
2019-05-25T07:10:19.448Z,13.32
2019-05-25T07:11:19.444Z,13.38
2019-05-25T07:12:19.434Z,12.96
2019-05-25T07:13:19.431Z,13.09
2019-05-25T07:14:19.409Z,12.89
2019-05-25T07:15:19.398Z,12.77
2019-05-25T07:16:19.375Z,12.79
2019-05-25T07:17:19.375Z,12.91
2019-05-25T07:18:19.380Z,12.81
2019-05-25T07:19:19.349Z,12.77
2019-05-25T07:20:19.348Z,12.84
2019-05-25T07:21:19.337Z,12.85
2019-05-25T07:22:19.322Z,12.79
2019-05-25T07:23:19.321Z,12.91
2019-05-25T07:24:19.286Z,12.88
2019-05-25T07:25:20.271Z,12.76
2019-05-25T07:26:19.281Z,12.76
2019-05-25T07:27:19.283Z,12.70
2019-05-25T07:28:19.275Z,12.76
2019-05-25T07:29:19.244Z,12.73
2019-05-25T07:30:19.233Z,12.55
2019-05-25T07:31:19.219Z,12.54
2019-05-25T07:32:19.208Z,12.59
2019-05-25T07:33:19.220Z,12.62
2019-05-25T07:34:19.182Z,12.73
2019-05-25T07:35:19.174Z,12.67
2019-05-25T07:36:19.172Z,12.66
2019-05-25T07:37:19.145Z,12.70
2019-05-25T07:38:19.164Z,12.79
2019-05-25T07:39:19.124Z,12.94
2019-05-25T07:40:19.109Z,12.92
2019-05-25T07:41:19.110Z,12.95
2019-05-25T07:42:20.078Z,12.99
2019-05-25T07:43:19.108Z,12.96
2019-05-25T07:44:19.083Z,13.13
2019-05-25T07:45:19.060Z,13.14
2019-05-25T07:46:19.860Z,13.22
2019-05-25T07:47:19.043Z,13.06
2019-05-25T07:48:19.024Z,13.14
2019-05-25T07:49:19.052Z,12.81
2019-05-25T07:50:19.003Z,12.99
2019-05-25T07:51:19.006Z,13.10
2019-05-25T07:52:18.986Z,13.14
2019-05-25T07:53:18.996Z,13.06
2019-05-25T07:54:18.988Z,13.25
2019-05-25T07:55:18.954Z,13.25
2019-05-25T07:56:18.935Z,13.12
2019-05-25T07:57:18.933Z,13.19
2019-05-25T07:58:18.939Z,13.29
2019-05-25T07:59:18.910Z,13.25
2019-05-25T08:00:18.923Z,13.16
2019-05-25T08:01:18.884Z,13.22
2019-05-25T08:02:18.868Z,13.31
2019-05-25T08:03:18.856Z,13.47
2019-05-25T08:04:18.863Z,13.43
2019-05-25T08:05:18.840Z,13.47
2019-05-25T08:06:18.822Z,13.41
2019-05-25T08:07:18.811Z,13.38
2019-05-25T08:08:18.811Z,13.53
2019-05-25T08:09:18.836Z,13.46
2019-05-25T08:10:18.790Z,13.43
2019-05-25T08:11:18.764Z,13.61
2019-05-25T08:12:18.765Z,13.48
2019-05-25T08:13:18.742Z,13.50
2019-05-25T08:14:18.748Z,13.71
2019-05-25T08:15:18.721Z,13.59
2019-05-25T08:16:18.714Z,13.68
2019-05-25T08:17:18.710Z,13.68
2019-05-25T08:18:18.701Z,13.80
2019-05-25T08:19:18.700Z,14.04
2019-05-25T08:20:18.671Z,14.12
2019-05-25T08:21:18.648Z,14.21
2019-05-25T08:22:18.638Z,14.01
2019-05-25T08:23:18.627Z,13.91
2019-05-25T08:24:18.653Z,13.90
2019-05-25T08:25:18.626Z,13.88
2019-05-25T08:26:18.602Z,13.73
2019-05-25T08:27:18.587Z,13.86
2019-05-25T08:28:31.819Z,14.08
2019-05-25T08:29:18.586Z,13.94
2019-05-25T08:30:18.563Z,14.11
2019-05-25T08:31:18.538Z,13.98
2019-05-25T08:32:18.536Z,13.99
2019-05-25T08:33:18.524Z,14.24
2019-05-25T08:34:18.528Z,14.30
2019-05-25T08:35:18.497Z,14.60
2019-05-25T08:36:18.493Z,14.74
2019-05-25T08:37:18.480Z,15.05
2019-05-25T08:38:18.474Z,15.09
2019-05-25T08:39:18.472Z,15.19
2019-05-25T08:40:18.445Z,14.80
2019-05-25T08:41:18.431Z,14.75
2019-05-25T08:42:18.428Z,14.60
2019-05-25T08:43:18.415Z,14.60
2019-05-25T08:44:18.417Z,14.53
2019-05-25T08:45:18.425Z,14.41
2019-05-25T08:46:18.387Z,14.34
2019-05-25T08:47:18.366Z,14.57
2019-05-25T08:48:18.376Z,14.46
2019-05-25T08:49:18.353Z,14.35
2019-05-25T08:50:18.358Z,14.42
2019-05-25T08:51:18.322Z,14.26
2019-05-25T08:52:18.359Z,14.27
2019-05-25T08:53:21.554Z,14.29
2019-05-25T08:54:18.292Z,14.59
2019-05-25T08:55:18.285Z,14.54
2019-05-25T08:56:18.283Z,14.48
2019-05-25T08:57:18.760Z,14.44
2019-05-25T08:58:18.259Z,14.54
2019-05-25T08:59:18.248Z,14.82
2019-05-25T09:00:18.250Z,14.90
2019-05-25T09:01:18.221Z,14.95
2019-05-25T09:02:18.205Z,14.74
2019-05-25T09:03:18.193Z,14.61
2019-05-25T09:04:18.184Z,14.66
2019-05-25T09:05:18.186Z,14.63
2019-05-25T09:06:18.163Z,14.74
2019-05-25T09:08:27.350Z,15.04
2019-05-25T09:09:28.329Z,15.18
2019-05-25T09:10:28.506Z,15.40
2019-05-25T09:11:28.306Z,15.60
2019-05-25T09:12:28.296Z,15.56
2019-05-25T09:13:28.284Z,14.85
2019-05-25T09:14:28.268Z,14.80
2019-05-25T09:15:28.282Z,14.93
2019-05-25T09:16:28.259Z,15.01
2019-05-25T09:17:28.247Z,15.30
2019-05-25T09:18:28.237Z,15.40
2019-05-25T09:19:28.213Z,15.66
2019-05-25T09:20:28.241Z,15.51
2019-05-25T09:21:28.209Z,15.70
2019-05-25T09:22:28.196Z,15.93
2019-05-25T09:23:28.182Z,15.77
2019-05-25T09:24:28.165Z,15.37
2019-05-25T09:25:28.162Z,15.16
2019-05-25T09:26:28.149Z,15.41
2019-05-25T09:27:28.150Z,15.93
2019-05-25T09:28:28.122Z,16.03
2019-05-25T09:29:28.131Z,15.76
2019-05-25T09:30:28.120Z,15.74
2019-05-25T09:31:28.097Z,15.43
2019-05-25T09:32:28.092Z,15.25
2019-05-25T09:33:28.063Z,15.37
2019-05-25T09:34:28.085Z,15.80
2019-05-25T09:35:28.089Z,15.95
2019-05-25T09:36:28.037Z,16.16
2019-05-25T09:37:28.040Z,16.47
2019-05-25T09:38:28.014Z,16.13
2019-05-25T09:39:28.006Z,16.18
2019-05-25T09:40:28.018Z,16.03
2019-05-25T09:41:27.985Z,15.80
2019-05-25T09:42:27.965Z,15.74
2019-05-25T09:43:27.952Z,15.80
2019-05-25T09:44:27.942Z,15.81
2019-05-25T09:45:27.953Z,16.07
2019-05-25T09:46:27.921Z,15.99
2019-05-25T09:47:27.913Z,15.91
2019-05-25T09:48:27.898Z,15.71
2019-05-25T09:49:27.887Z,15.80
2019-05-25T09:50:27.941Z,15.74
2019-05-25T09:51:27.869Z,15.28
2019-05-25T09:52:27.863Z,15.25
2019-05-25T09:53:27.856Z,14.91
2019-05-25T09:54:27.860Z,14.90
2019-05-25T09:55:27.829Z,14.75
2019-05-25T09:56:27.817Z,14.97
2019-05-25T09:57:27.810Z,15.04
2019-05-25T09:58:27.790Z,15.30
2019-05-25T09:59:27.802Z,15.74
2019-05-25T10:00:27.794Z,15.64
2019-05-25T10:01:27.772Z,15.40
2019-05-25T10:02:27.758Z,15.27
2019-05-25T10:03:27.743Z,15.28
2019-05-25T10:04:27.727Z,15.51
2019-05-25T10:05:27.838Z,15.60
2019-05-25T10:06:27.720Z,15.78
2019-05-25T10:07:27.721Z,15.88
2019-05-25T10:08:27.675Z,15.95
2019-05-25T10:09:27.670Z,16.30
2019-05-25T10:10:27.677Z,16.55
2019-05-25T10:11:27.657Z,16.51
2019-05-25T10:12:27.640Z,16.59
2019-05-25T10:13:27.620Z,16.16
2019-05-25T10:14:27.606Z,15.81
2019-05-25T10:15:28.474Z,16.04
2019-05-25T10:16:27.617Z,16.17
2019-05-25T10:17:27.579Z,16.18
2019-05-25T10:18:27.588Z,16.66
2019-05-25T10:19:27.549Z,17.27
2019-05-25T10:20:27.547Z,17.54
2019-05-25T10:21:27.548Z,17.42
2019-05-25T10:22:27.534Z,17.77
2019-05-25T10:23:27.508Z,17.87
2019-05-25T10:24:27.511Z,18.35
2019-05-25T10:25:27.493Z,17.73
2019-05-25T10:26:27.504Z,17.87
2019-05-25T10:27:27.468Z,17.98
2019-05-25T10:28:27.478Z,17.80
2019-05-25T10:29:36.756Z,17.80
2019-05-25T10:30:27.444Z,17.32
2019-05-25T10:31:27.441Z,17.03
2019-05-25T10:32:27.423Z,17.30
2019-05-25T10:33:27.414Z,17.81
2019-05-25T10:34:27.397Z,18.01
2019-05-25T10:35:27.465Z,18.21
2019-05-25T10:36:27.387Z,17.86
2019-05-25T10:37:27.361Z,17.71
2019-05-25T10:38:27.340Z,17.74
2019-05-25T10:39:27.507Z,17.68
2019-05-25T10:40:27.340Z,17.36
2019-05-25T10:41:27.342Z,17.53
2019-05-25T10:42:27.310Z,17.58
2019-05-25T10:43:27.301Z,17.57
2019-05-25T10:44:27.273Z,17.12
2019-05-25T10:45:27.277Z,17.20
2019-05-25T10:46:27.311Z,16.55
2019-05-25T10:47:27.248Z,16.60
2019-05-25T10:48:27.246Z,17.00
2019-05-25T10:49:27.228Z,17.20
2019-05-25T10:50:27.228Z,17.33
2019-05-25T10:51:27.230Z,17.70
2019-05-25T10:52:27.205Z,17.58
2019-05-25T10:53:27.189Z,17.40
2019-05-25T10:54:27.174Z,17.21
2019-05-25T10:55:27.157Z,17.24
2019-05-25T10:56:27.175Z,17.12
2019-05-25T10:57:27.145Z,17.42
2019-05-25T10:58:27.134Z,17.60
2019-05-25T10:59:27.111Z,17.33
2019-05-25T11:00:27.108Z,17.09
2019-05-25T11:01:27.205Z,17.07
2019-05-25T11:02:27.086Z,17.49
2019-05-25T11:03:27.082Z,17.70
2019-05-25T11:04:27.064Z,17.17
2019-05-25T11:05:27.049Z,17.02
2019-05-25T11:06:27.070Z,17.00
2019-05-25T11:07:27.043Z,16.78
2019-05-25T11:09:37.403Z,17.07
2019-05-25T11:10:38.339Z,17.15
2019-05-25T11:11:38.332Z,17.09
2019-05-25T11:12:38.343Z,16.96
2019-05-25T11:13:38.303Z,17.21
2019-05-25T11:14:38.320Z,17.51
2019-05-25T11:15:38.288Z,17.51
2019-05-25T11:16:38.302Z,17.39
2019-05-25T11:17:38.256Z,17.28
2019-05-25T11:18:38.308Z,17.27
2019-05-25T11:19:38.245Z,17.45
2019-05-25T11:20:38.279Z,17.84
2019-05-25T11:21:38.262Z,18.11
2019-05-25T11:22:38.205Z,17.84
2019-05-25T11:23:38.197Z,17.73
2019-05-25T11:24:38.187Z,18.05
2019-05-25T11:25:38.197Z,18.10
2019-05-25T11:26:38.176Z,18.31
2019-05-25T11:27:38.225Z,18.66
2019-05-25T11:28:38.142Z,18.57
2019-05-25T11:29:38.124Z,18.35
2019-05-25T11:30:38.122Z,18.23
2019-05-25T11:31:38.289Z,18.21
2019-05-25T11:32:38.127Z,17.77
2019-05-25T11:33:38.109Z,17.58
2019-05-25T11:34:38.088Z,17.76
2019-05-25T11:35:38.082Z,17.62
2019-05-25T11:36:38.076Z,17.54
2019-05-25T11:37:38.101Z,17.63
2019-05-25T11:38:38.044Z,17.60
2019-05-25T11:39:38.065Z,18.01
2019-05-25T11:40:38.015Z,18.20
2019-05-25T11:41:37.998Z,18.54
2019-05-25T11:42:38.029Z,18.69
2019-05-25T11:43:38.006Z,18.91
2019-05-25T11:44:37.969Z,18.65
2019-05-25T11:45:38.000Z,18.68
2019-05-25T11:46:37.997Z,18.64
2019-05-25T11:47:37.958Z,18.65
2019-05-25T11:48:37.943Z,18.82
2019-05-25T11:49:37.914Z,19.01
2019-05-25T11:50:37.933Z,19.07
2019-05-25T11:51:37.917Z,18.66
2019-05-25T11:52:38.136Z,18.74
2019-05-25T11:53:37.886Z,18.51
2019-05-25T11:54:37.865Z,18.79
2019-05-25T11:55:37.884Z,18.99
2019-05-25T11:56:37.829Z,19.06
2019-05-25T11:57:37.852Z,19.30
2019-05-25T11:58:46.966Z,19.25
2019-05-25T11:59:37.813Z,19.17
2019-05-25T12:00:37.808Z,18.99
2019-05-25T12:01:37.783Z,18.96
2019-05-25T12:02:37.797Z,19.10
2019-05-25T12:03:37.777Z,19.12
2019-05-25T12:04:37.789Z,18.39
2019-05-25T12:05:37.758Z,17.94
2019-05-25T12:06:37.741Z,17.68
2019-05-25T12:07:37.733Z,17.77
2019-05-25T12:08:37.716Z,17.76
2019-05-25T12:09:37.705Z,17.80
2019-05-25T12:10:37.694Z,18.07
2019-05-25T12:11:37.689Z,18.20
2019-05-25T12:12:37.681Z,18.49
2019-05-25T12:13:37.656Z,18.31
2019-05-25T12:14:37.668Z,18.25
2019-05-25T12:15:37.685Z,18.49
2019-05-25T12:16:37.647Z,18.74
2019-05-25T12:17:37.655Z,18.32
2019-05-25T12:18:37.624Z,18.02
2019-05-25T12:19:37.610Z,17.98
2019-05-25T12:20:37.584Z,17.94
2019-05-25T12:21:37.564Z,17.74
2019-05-25T12:22:37.601Z,17.77
2019-05-25T12:23:37.544Z,17.58
2019-05-25T12:24:37.560Z,17.54
2019-05-25T12:25:37.537Z,17.80
2019-05-25T12:26:37.514Z,18.04
2019-05-25T12:27:37.546Z,18.28
2019-05-25T12:28:37.649Z,18.53
2019-05-25T12:29:37.486Z,18.64
2019-05-25T12:30:40.895Z,18.41
2019-05-25T12:31:37.489Z,18.10
2019-05-25T12:32:37.455Z,18.31
2019-05-25T12:33:37.473Z,17.80
2019-05-25T12:34:37.418Z,17.68
2019-05-25T12:35:37.418Z,17.77
2019-05-25T12:36:37.439Z,17.70
2019-05-25T12:37:37.429Z,17.83
2019-05-25T12:38:37.398Z,17.71
2019-05-25T12:39:37.405Z,17.68
2019-05-25T12:40:52.456Z,17.55
2019-05-25T12:41:37.387Z,17.86
2019-05-25T12:42:37.376Z,17.79
2019-05-25T12:43:37.343Z,17.79
2019-05-25T12:44:37.341Z,18.11
2019-05-25T12:45:37.309Z,18.09
2019-05-25T12:46:37.294Z,17.98
2019-05-25T12:47:37.330Z,18.11
2019-05-25T12:48:37.282Z,18.23
2019-05-25T12:49:50.026Z,18.29
2019-05-25T12:50:37.305Z,18.38
2019-05-25T12:51:37.275Z,18.56
2019-05-25T12:52:37.274Z,18.53
2019-05-25T12:53:37.253Z,18.62
2019-05-25T12:54:37.234Z,18.75
2019-05-25T12:55:37.231Z,18.60
2019-05-25T12:56:37.226Z,18.36
2019-05-25T12:57:37.214Z,18.28
2019-05-25T12:58:37.187Z,18.26
2019-05-25T12:59:37.180Z,17.76